• Join FlightAware (Why Join?)
  • Login
  • US Flag GB Flag 
14:50 EDT


 

Airport Tracker/Info


-or-


 

Live Flight TrackerFlight Track Log ✈ UAL4476 ✈ 09-Apr-2013 ✈ KCLT - KCLE

Flight Track Log - Related Links

Times and Time Zones

All times are in EDT time to prevent confusion due to time zone crossing. See the UAL4476 flight status page for this flight to view local times or setup timezone preferences in your user account.

Time Position Orientation Groundspeed Altitude Reporting Facility
EDT Latitude Longitude Course Direction KTS MPH feet Rate Location/Type
06:34 35.1994 -80.9622 230° Southwest 147 169 1,700  Level FAA TRACON SMA TRACON (SMA)
06:34 35.1906 -80.9750 230° Southwest 155 178 2,500 1,800 Climbing FAA TRACON SMA TRACON (SMA)
06:35 35.1803 -80.9894 229° Southwest 176 203 2,900 1,800 Climbing FAA TRACON SMA TRACON (SMA)
06:35 35.1642 -81.0114 228° Southwest 223 257 3,700 2,400 Climbing FAA TRACON SMA TRACON (SMA)
06:35 35.1506 -81.0300 228° Southwest 237 273 4,500 2,520 Climbing FAA TRACON SMA TRACON (SMA)
06:36 35.1369 -81.0494 229° Southwest 245 282 5,400 3,000 Climbing FAA TRACON SMA TRACON (SMA)
06:36 35.1306 -81.0808 256° West 243 280 6,500 2,700 Climbing FAA TRACON SMA TRACON (SMA)
06:36 35.1275 -81.1075 262° West 257 296 7,200 1,800 Climbing FAA TRACON SMA TRACON (SMA)
06:37 35.1294 -81.1347 275° West 269 310 7,700 2,400 Climbing FAA TRACON SMA TRACON (SMA)
06:37 35.1508 -81.1567 320° Northwest 263 303 8,800 3,120 Climbing FAA TRACON SMA TRACON (SMA)
06:37 35.1742 -81.1597 354° North 265 305 9,800 2,760 Climbing FAA TRACON SMA TRACON (SMA)
06:38 35.1972 -81.1606 358° North 263 303 10,700 2,400 Climbing FAA TRACON SMA TRACON (SMA)
06:38 35.2264 -81.1500 16° North 297 342 11,400 1,500 Climbing FAA TRACON SMA TRACON (SMA)
06:38 35.2506 -81.1361 25° Northeast 313 360 11,700 1,020 Climbing FAA TRACON SMA TRACON (SMA)
06:39 35.2769 -81.1228 22° Northeast 344 396 12,100 1,020 Climbing FAA TRACON SMA TRACON (SMA)
06:39 35.3006 -81.1094 25° Northeast 351 404 12,400 1,020 Climbing FAA TRACON SMA TRACON (SMA)
06:39 35.3397 -81.0889 23° Northeast 364 419 12,800 1,200 Climbing FAA TRACON SMA TRACON (SMA)
06:40 35.3694 -81.0731 23° Northeast 372 428 13,200 1,200 Climbing FAA TRACON SMA TRACON (SMA)
06:40 35.3961 -81.0583 24° Northeast 377 434 13,600 1,920 Climbing FAA TRACON SMA TRACON (SMA)
06:40 35.4369 -81.0364 24° Northeast 381 438 14,500 2,220 Climbing FAA TRACON SMA TRACON (SMA)
06:41 35.4669 -81.0203 24° Northeast 382 440 15,100 1,800 Climbing FAA TRACON SMA TRACON (SMA)
06:41 35.4983 -81.0103 15° North 370 426 15,700 2,100 Climbing FAA TRACON SMA TRACON (SMA)
06:41 35.5381 -81.0108 359° North 366 421 16,500 2,040 Climbing FAA TRACON SMA TRACON (SMA)
06:42 35.5683 -81.0194 347° North 363 418 17,100 1,800 Climbing FAA TRACON SMA TRACON (SMA)
06:42 35.5989 -81.0264 350° North 362 417 17,700 1,800 Climbing FAA TRACON SMA TRACON (SMA)
06:42 35.6367 -81.0364 348° North 362 417 18,300 1,800 Climbing FAA TRACON SMA TRACON (SMA)
06:43 35.6669 -81.0442 348° North 361 415 18,900 1,920 Climbing FAA TRACON SMA TRACON (SMA)
06:43 35.6972 -81.0522 348° North 361 415 19,600 2,100 Climbing FAA TRACON SMA TRACON (SMA)
06:43 35.7350 -81.0619 348° North 361 415 20,300 2,100 Climbing FAA TRACON SMA TRACON (SMA)
06:44 35.7653 -81.0700 348° North 361 415 21,000 1,920 Climbing FAA TRACON SMA TRACON (SMA)
06:44 35.7956 -81.0778 348° North 361 415 21,600 1,500 Climbing FAA TRACON SMA TRACON (SMA)
06:44 35.8181 -81.0836 348° North 361 415 22,000 600 Climbing FAA TRACON SMA TRACON (SMA)
06:45 35.8181 -81.0836 191° South 361 415 22,000 2,340 Level FAA TRACON SMA TRACON (SMA)
06:45 35.9064 -81.1083 347° North 359 413 23,800 2,640 Climbing Atlanta Center
06:46 36.0031 -81.1333 348° North 359 413 25,800 1,500 Climbing Atlanta Center
06:47 36.1036 -81.1578 349° North 359 413 26,800 960 Climbing Atlanta Center
06:48 36.2086 -81.1875 347° North 369 425 27,800 900 Climbing Atlanta Center
06:49 36.3011 -81.2100 349° North 377 434 28,600 840 Climbing Atlanta Center
06:50 36.4122 -81.2397 348° North 390 449 29,500 900 Climbing Atlanta Center
06:51 36.5214 -81.2669 349° North 395 455 30,400 900 Climbing Atlanta Center
06:52 36.6303 -81.2967 348° North 395 455 31,400 780 Climbing Atlanta Center
06:53 36.7478 -81.3289 348° North 407 468 32,000 300 Climbing Atlanta Center
06:54 36.8569 -81.3614 347° North 407 468 32,000  Level Atlanta Center
06:56 37.0947 -81.4239 348° North 418 481 32,000  Level Indianapolis Center
06:57 37.2083 -81.4553 348° North 417 480 32,000  Level Indianapolis Center
06:58 37.3275 -81.4847 349° North 414 476 32,000  Level Indianapolis Center
06:59 37.4389 -81.5064 351° North 422 486 32,000  Level Indianapolis Center
07:00 37.5556 -81.5292 351° North 423 487 32,000  Level Indianapolis Center
07:01 37.6717 -81.5531 351° North 423 487 32,000  Level Indianapolis Center
07:02 37.7911 -81.5753 352° North 431 496 32,000  Level Indianapolis Center
07:03 37.9200 -81.6014 351° North 432 497 32,000  Level Indianapolis Center
07:04 38.0394 -81.6256 351° North 434 499 32,000  Level Indianapolis Center
07:05 38.1592 -81.6497 351° North 434 499 32,000  Level Indianapolis Center
07:06 38.2797 -81.6739 351° North 435 501 32,000  Level Indianapolis Center
07:07 38.4006 -81.6989 351° North 436 502 32,000  Level Indianapolis Center
07:08 38.5217 -81.7233 351° North 436 502 32,000  Level Indianapolis Center
07:09 38.6439 -81.7478 351° North 436 502 32,000  Level Indianapolis Center
07:10 38.7656 -81.7717 351° North 433 498 32,000  Level Indianapolis Center
07:11 38.8858 -81.7964 351° North 432 497 32,000  Level Indianapolis Center
07:12 39.0042 -81.8214 351° North 429 494 32,000  Level Indianapolis Center
07:13 39.1242 -81.8458 351° North 433 498 32,000 -60 Level Indianapolis Center
07:14 39.2428 -81.8692 351° North 431 496 31,900 -540 Descending Indianapolis Center
07:15 39.3614 -81.8942 351° North 431 496 30,900 -1,080 Descending Indianapolis Center
07:16 39.4789 -81.9186 351° North 428 493 29,800 -1,620 Descending Indianapolis Center
07:17 39.5956 -81.9436 351° North 424 488 27,700 -2,340 Descending Indianapolis Center
07:18 39.7267 -81.9711 351° North 428 493 25,100 -2,280 Descending Indianapolis Center
07:19 39.8428 -81.9867 354° North 416 479 23,100 -1,500 Descending Indianapolis Center
07:20 39.9611 -81.9897 359° North 420 483 22,100 -1,080 Descending Indianapolis Center
07:21 40.0769 -81.9950 358° North 414 476 21,000 -1,080 Descending Indianapolis Center
07:22 40.1919 -81.9997 358° North 409 471 20,000 -1,560 Descending Indianapolis Center
07:23 40.3000 -82.0044 358° North 397 457 17,900 -1,980 Descending Indianapolis Center
07:24 40.4086 -82.0094 358° North 387 445 16,000 -1,260 Descending Indianapolis Center
07:25 40.5208 -82.0142 358° North 382 440 15,400 -600 Descending Cleveland Center
07:26 40.6217 -81.9617 22° Northeast 389 448 14,900 -780 Descending Cleveland Center
07:27 40.7103 -81.8733 37° Northeast 389 448 13,900 -1,200 Descending Cleveland Center
07:28 40.7797 -81.8061 36° Northeast 382 440 12,900 -1,500 Descending Cleveland Center
07:28 40.7967 -81.7900 36° Northeast 389 448 12,400 -2,280 Descending Cleveland Center
07:29 40.8808 -81.7064 37° Northeast 384 442 10,100 -1,320 Descending Cleveland Center
07:30 40.9686 -81.6914 North 310 357 9,900 -120 Descending Cleveland Center
07:31 41.0386 -81.7806 316° Northwest 290 334 9,900 -360 Level Cleveland Center
07:32 41.0942 -81.8478 318° Northwest 285 328 9,200 -1,200 Descending Cleveland Center
07:33 41.1456 -81.9094 318° Northwest 260 299 7,500 -1,740 Descending Cleveland Center
07:34 41.1969 -81.9683 319° Northwest 250 288 5,700 -1,800 Descending Cleveland Center
07:35 41.2461 -82.0303 317° Northwest 240 276 3,900 -1,380 Descending Cleveland Center
07:36 41.2961 -82.0506 343° North 235 270 3,000 -540 Descending Cleveland Center
07:37 41.3322 -81.9769 57° Northeast 171 197 2,900 -660 Descending Cleveland Center
07:39 41.3747 -81.9142 48° Northeast 133 153 1,600 -960 Descending Cleveland Center
07:40 41.3961 -81.8814 49° Northeast 138 159 900 -780 Descending Cleveland Center